Time;durP1;ratioP1;P1;durP2;ratioP2;P2;SDS_P1;SDS_P2;PMS_P1;PMS_P2;Temp;Humidity;BMP_temperature;BMP_pressure;BME280_temperature;BME280_humidity;BME280_pressure;Samples;Min_cycle;Max_cycle;Signal;HPM_P1;HPM_P2
2022/04/30 00:01:03;;;;;;;5.40;3.63;;;;;;;;;;5107855;28;20026;-68
2022/04/30 00:03:30;;;;;;;7.18;3.80;;;;;;;;;;5107282;28;20035;-70
2022/04/30 00:05:57;;;;;;;9.75;6.68;;;;;;;;;;5107688;28;20019;-69
2022/04/30 00:08:25;;;;;;;18.55;12.32;;;;;;;;;;5107216;28;20028;-70
2022/04/30 00:10:53;;;;;;;27.00;16.80;;;;;;;;;;5112458;28;20023;-70
2022/04/30 00:13:20;;;;;;;17.60;9.70;;;;;;;;;;5108719;28;20027;-71
2022/04/30 00:15:47;;;;;;;17.70;11.98;;;;;;;;;;5112148;28;20118;-70
2022/04/30 00:18:14;;;;;;;12.85;4.53;;;;;;;;;;5112429;28;20084;-70
2022/04/30 00:20:45;;;;;;;11.57;4.65;;;;;;;;;;5111128;28;20043;-69
2022/04/30 00:23:21;;;;;;;10.00;4.30;;;;;;;;;;5106066;28;20115;-66
2022/04/30 00:25:49;;;;;;;9.50;6.63;;;;;;;;;;5106143;28;20039;-69
2022/04/30 00:28:17;;;;;;;10.83;4.73;;;;;;;;;;5107180;28;20027;-70
2022/04/30 00:30:45;;;;;;;8.60;5.93;;;;;;;;;;5106972;28;20035;-69
2022/04/30 00:33:11;;;;;;;11.77;6.27;;;;;;;;;;5111249;28;20016;-70
2022/04/30 00:35:38;;;;;;;12.30;7.00;;;;;;;;;;5112604;28;20023;-69
2022/04/30 00:38:06;;;;;;;15.67;8.17;;;;;;;;;;5111727;28;20027;-69
2022/04/30 00:40:33;;;;;;;15.97;8.03;;;;;;;;;;5112652;28;20103;-69
2022/04/30 00:43:00;;;;;;;15.93;6.97;;;;;;;;;;5111524;28;20122;-69
2022/04/30 00:45:27;;;;;;;12.90;7.77;;;;;;;;;;5108498;28;20074;-70
2022/04/30 00:47:55;;;;;;;14.07;8.00;;;;;;;;;;5107342;28;20494;-69
2022/04/30 00:50:22;;;;;;;15.63;7.73;;;;;;;;;;5106837;28;20036;-69
2022/04/30 00:52:50;;;;;;;16.07;7.80;;;;;;;;;;5107087;28;20109;-69
2022/04/30 00:55:21;;;;;;;11.07;7.37;;;;;;;;;;5110025;28;20027;-69
2022/04/30 00:57:50;;;;;;;13.83;7.40;;;;;;;;;;5112061;28;20020;-69
2022/04/30 01:00:17;;;;;;;17.93;8.83;;;;;;;;;;5111757;28;20076;-69
2022/04/30 01:02:44;;;;;;;14.40;8.17;;;;;;;;;;5111953;28;20024;-69
2022/04/30 01:05:11;;;;;;;11.83;8.33;;;;;;;;;;5111529;28;20040;-69
2022/04/30 01:07:40;;;;;;;17.40;9.43;;;;;;;;;;5108501;28;20039;-69
2022/04/30 01:10:08;;;;;;;22.57;8.77;;;;;;;;;;5106933;28;20034;-69
2022/04/30 01:12:36;;;;;;;14.67;8.80;;;;;;;;;;5107238;28;20336;-69
2022/04/30 01:15:05;;;;;;;16.40;9.30;;;;;;;;;;5107241;28;20024;-69
2022/04/30 01:17:32;;;;;;;14.10;8.97;;;;;;;;;;5109488;28;20026;-69
2022/04/30 01:19:59;;;;;;;11.90;8.50;;;;;;;;;;5112486;28;20382;-69
2022/04/30 01:22:28;;;;;;;12.37;7.70;;;;;;;;;;5115931;28;20031;-69
2022/04/30 01:24:56;;;;;;;16.13;7.73;;;;;;;;;;5116088;28;20019;-69
2022/04/30 01:27:23;;;;;;;12.67;7.93;;;;;;;;;;5115496;28;20027;-69
2022/04/30 01:29:50;;;;;;;10.03;6.73;;;;;;;;;;5112330;28;20032;-69
2022/04/30 01:37:47;;;;;;;10.40;6.30;;;;;;;;;;5110306;28;20043;-69
2022/04/30 01:40:14;;;;;;;8.67;6.60;;;;;;;;;;5113623;28;20094;-69
2022/04/30 01:42:41;;;;;;;13.60;7.40;;;;;;;;;;5115104;28;20023;-69
2022/04/30 01:45:08;;;;;;;9.20;6.40;;;;;;;;;;5115188;28;20020;-69
2022/04/30 01:47:40;;;;;;;11.77;6.73;;;;;;;;;;5115059;28;20028;-69
2022/04/30 01:50:07;;;;;;;13.37;6.97;;;;;;;;;;5114791;28;20088;-69
2022/04/30 01:52:34;;;;;;;11.80;8.07;;;;;;;;;;5112597;28;20059;-69
2022/04/30 01:55:01;;;;;;;13.90;8.33;;;;;;;;;;5110314;28;20032;-69
2022/04/30 01:57:28;;;;;;;11.83;9.00;;;;;;;;;;5110079;28;20028;-73
2022/04/30 01:59:58;;;;;;;12.10;8.37;;;;;;;;;;5109213;28;20031;-71
2022/04/30 02:02:27;;;;;;;10.47;7.57;;;;;;;;;;5112131;28;20066;-70
2022/04/30 02:04:55;;;;;;;13.23;8.07;;;;;;;;;;5114807;28;20047;-71
2022/04/30 02:07:23;;;;;;;11.67;7.87;;;;;;;;;;5115078;28;20031;-70
2022/04/30 02:09:51;;;;;;;17.37;8.67;;;;;;;;;;5114548;28;20028;-71
2022/04/30 02:12:18;;;;;;;13.60;8.23;;;;;;;;;;5114769;28;20027;-71
2022/04/30 02:14:49;;;;;;;12.23;9.10;;;;;;;;;;5112384;28;20015;-70
2022/04/30 02:17:17;;;;;;;13.43;8.73;;;;;;;;;;5109721;28;20047;-72
2022/04/30 02:22:30;;;;;;;18.53;10.77;;;;;;;;;;5108727;28;20108;-70
2022/04/30 02:24:59;;;;;;;16.03;9.77;;;;;;;;;;5111119;28;20475;-70
2022/04/30 02:27:27;;;;;;;15.83;9.20;;;;;;;;;;5114181;28;20053;-74
2022/04/30 02:29:53;;;;;;;12.30;9.10;;;;;;;;;;5114073;28;20058;-71
2022/04/30 02:32:24;;;;;;;12.57;8.83;;;;;;;;;;5112093;28;20031;-71
2022/04/30 02:34:51;;;;;;;12.70;8.37;;;;;;;;;;5114624;28;20031;-70
2022/04/30 02:37:18;;;;;;;11.27;8.80;;;;;;;;;;5112264;28;20027;-69
2022/04/30 02:39:48;;;;;;;12.03;8.33;;;;;;;;;;5109465;28;20110;-69
2022/04/30 02:42:14;;;;;;;12.80;8.57;;;;;;;;;;5109031;28;20478;-69
2022/04/30 02:44:41;;;;;;;11.30;8.43;;;;;;;;;;5109437;28;20027;-70
2022/04/30 02:47:08;;;;;;;13.57;8.77;;;;;;;;;;5110006;28;20024;-70
2022/04/30 02:49:34;;;;;;;12.70;8.13;;;;;;;;;;5114064;28;20032;-69
2022/04/30 02:52:01;;;;;;;12.50;8.60;;;;;;;;;;5113556;28;20039;-69
2022/04/30 02:54:29;;;;;;;10.67;7.97;;;;;;;;;;5095689;28;20390;-69
2022/04/30 02:56:55;;;;;;;10.37;7.77;;;;;;;;;;5113883;28;20035;-70
2022/04/30 03:02:07;;;;;;;11.77;7.68;;;;;;;;;;5108922;28;20126;-70
2022/04/30 03:04:33;;;;;;;10.53;6.77;;;;;;;;;;5108944;28;20039;-69
2022/04/30 03:07:00;;;;;;;10.77;7.07;;;;;;;;;;5108761;28;20102;-70
2022/04/30 03:09:27;;;;;;;11.67;6.77;;;;;;;;;;5109445;28;20035;-69
2022/04/30 03:11:54;;;;;;;11.10;6.90;;;;;;;;;;5113728;28;20034;-69
2022/04/30 03:14:20;;;;;;;10.30;7.53;;;;;;;;;;5113839;28;20476;-69
2022/04/30 03:22:17;;;;;;;10.10;6.77;;;;;;;;;;5111460;28;19914;-69
2022/04/30 03:24:44;;;;;;;11.50;6.67;;;;;;;;;;5108821;28;20032;-69
2022/04/30 03:27:12;;;;;;;8.63;6.47;;;;;;;;;;5108260;28;20027;-69
2022/04/30 03:29:38;;;;;;;12.57;6.40;;;;;;;;;;5108159;28;20037;-70
2022/04/30 03:32:06;;;;;;;8.60;6.00;;;;;;;;;;5108761;28;20054;-69
2022/04/30 03:34:34;;;;;;;12.53;6.70;;;;;;;;;;5113371;28;20442;-69
2022/04/30 03:37:00;;;;;;;8.57;6.23;;;;;;;;;;5113358;28;20486;-69
2022/04/30 03:39:27;;;;;;;10.63;5.90;;;;;;;;;;5112959;28;20055;-69
2022/04/30 03:41:54;;;;;;;11.13;5.03;;;;;;;;;;5113044;28;20047;-69
2022/04/30 03:44:20;;;;;;;8.60;5.23;;;;;;;;;;5112316;28;20505;-69
2022/04/30 03:46:47;;;;;;;8.53;5.10;;;;;;;;;;5107714;28;20100;-69
2022/04/30 03:49:14;;;;;;;8.50;5.50;;;;;;;;;;5108345;28;20031;-69
2022/04/30 03:51:40;;;;;;;11.23;5.83;;;;;;;;;;5108244;28;20048;-69
2022/04/30 03:54:07;;;;;;;8.23;5.47;;;;;;;;;;5107563;28;20027;-70
2022/04/30 03:56:34;;;;;;;8.73;6.10;;;;;;;;;;5112481;28;20492;-69
2022/04/30 03:59:01;;;;;;;11.80;6.53;;;;;;;;;;5112802;28;20024;-70
2022/04/30 04:01:28;;;;;;;11.97;6.60;;;;;;;;;;5112735;28;20032;-70
2022/04/30 04:03:55;;;;;;;13.33;7.07;;;;;;;;;;5112328;28;20386;-69
2022/04/30 04:06:22;;;;;;;9.87;6.40;;;;;;;;;;5112347;28;20123;-70
2022/04/30 04:08:51;;;;;;;10.50;6.20;;;;;;;;;;5108140;28;20067;-70
2022/04/30 04:11:18;;;;;;;11.43;5.97;;;;;;;;;;5107235;28;20023;-69
2022/04/30 04:19:14;;;;;;;;;;;;;;;;;;5092894;28;20115;-70
2022/04/30 04:21:41;;;;;;;7.33;5.50;;;;;;;;;;5092100;28;19904;-70
2022/04/30 04:26:53;;;;;;;10.90;5.55;;;;;;;;;;5112377;28;20081;-70
2022/04/30 04:29:19;;;;;;;11.70;5.87;;;;;;;;;;5111670;28;20032;-70
2022/04/30 04:31:46;;;;;;;10.13;6.23;;;;;;;;;;5107294;28;20494;-70
2022/04/30 04:34:13;;;;;;;12.87;5.27;;;;;;;;;;5107821;28;20031;-69
2022/04/30 04:36:40;;;;;;;13.80;6.53;;;;;;;;;;5106777;28;20115;-69
2022/04/30 04:39:12;;;;;;;10.00;5.37;;;;;;;;;;5107344;28;20039;-72
2022/04/30 04:41:39;;;;;;;7.17;5.27;;;;;;;;;;5112150;28;20034;-71
2022/04/30 04:44:05;;;;;;;7.90;5.23;;;;;;;;;;5111776;28;20439;-73
2022/04/30 04:46:33;;;;;;;12.40;5.90;;;;;;;;;;5112335;28;20114;-72
2022/04/30 04:49:00;;;;;;;10.87;5.77;;;;;;;;;;5110659;28;20070;-72
2022/04/30 04:51:27;;;;;;;8.33;5.20;;;;;;;;;;5111591;28;20077;-72
2022/04/30 04:53:53;;;;;;;9.23;5.57;;;;;;;;;;5106724;28;20077;-74
2022/04/30 04:56:20;;;;;;;7.37;4.63;;;;;;;;;;5109697;28;20080;-72
2022/04/30 04:58:47;;;;;;;10.07;5.00;;;;;;;;;;5109773;28;20004;-71
2022/04/30 05:01:13;;;;;;;7.83;4.73;;;;;;;;;;5109243;28;20043;-71
2022/04/30 05:03:40;;;;;;;10.37;5.23;;;;;;;;;;5111946;28;20027;-71
2022/04/30 05:06:07;;;;;;;9.63;4.77;;;;;;;;;;5113780;28;20468;-71
2022/04/30 05:08:33;;;;;;;10.93;5.33;;;;;;;;;;5113928;28;20102;-71
2022/04/30 05:11:00;;;;;;;9.30;5.23;;;;;;;;;;5114011;28;20028;-71
2022/04/30 05:13:27;;;;;;;10.50;5.13;;;;;;;;;;5114256;28;20019;-71
2022/04/30 05:15:53;;;;;;;8.97;5.50;;;;;;;;;;5110275;28;20129;-71
2022/04/30 05:18:21;;;;;;;10.70;5.23;;;;;;;;;;5110415;28;20019;-71
2022/04/30 05:20:48;;;;;;;8.17;5.57;;;;;;;;;;5110736;28;20020;-71
2022/04/30 05:23:14;;;;;;;7.57;5.03;;;;;;;;;;5110334;28;20042;-71
2022/04/30 05:25:41;;;;;;;9.90;5.10;;;;;;;;;;5113838;28;20467;-71
2022/04/30 05:28:11;;;;;;;7.10;5.03;;;;;;;;;;5115680;28;20023;-71
2022/04/30 05:30:38;;;;;;;7.73;4.27;;;;;;;;;;5115399;28;20159;-71
2022/04/30 05:33:05;;;;;;;9.20;5.60;;;;;;;;;;5115246;28;20424;-71
2022/04/30 05:35:32;;;;;;;9.80;5.13;;;;;;;;;;5115734;28;20028;-71
2022/04/30 05:37:59;;;;;;;7.77;5.27;;;;;;;;;;5112130;28;20030;-71
2022/04/30 05:40:25;;;;;;;7.90;4.87;;;;;;;;;;5110460;28;20027;-71
2022/04/30 05:42:52;;;;;;;12.67;5.03;;;;;;;;;;5109836;28;20077;-71
2022/04/30 05:45:19;;;;;;;7.63;5.17;;;;;;;;;;5110114;28;20015;-71
2022/04/30 05:47:45;;;;;;;11.00;5.67;;;;;;;;;;5112088;28;20052;-71
2022/04/30 05:50:12;;;;;;;9.23;5.20;;;;;;;;;;5114771;28;20043;-71
2022/04/30 05:52:39;;;;;;;16.77;6.77;;;;;;;;;;5115239;28;20016;-71
2022/04/30 05:55:06;;;;;;;12.57;7.53;;;;;;;;;;5115529;28;20023;-71
2022/04/30 05:57:33;;;;;;;11.00;6.70;;;;;;;;;;5115144;28;20023;-71
2022/04/30 05:59:59;;;;;;;13.50;7.20;;;;;;;;;;5112052;28;20036;-71
2022/04/30 06:02:26;;;;;;;10.90;6.87;;;;;;;;;;5109229;28;20074;-71
2022/04/30 06:04:53;;;;;;;12.30;6.27;;;;;;;;;;5109337;28;20447;-71
2022/04/30 06:07:20;;;;;;;12.23;6.33;;;;;;;;;;5109360;28;20069;-71
2022/04/30 06:09:47;;;;;;;12.47;7.43;;;;;;;;;;5110506;28;20036;-72
2022/04/30 06:12:13;;;;;;;12.60;7.50;;;;;;;;;;5114994;28;20115;-71
2022/04/30 06:14:40;;;;;;;12.57;6.73;;;;;;;;;;5114895;28;20463;-71
2022/04/30 06:17:07;;;;;;;13.43;8.20;;;;;;;;;;5114361;28;20026;-71
2022/04/30 06:19:33;;;;;;;12.47;8.20;;;;;;;;;;5114482;28;20023;-71
2022/04/30 06:22:00;;;;;;;11.17;7.63;;;;;;;;;;5113168;28;20567;-71
2022/04/30 06:24:27;;;;;;;11.67;7.07;;;;;;;;;;5108925;28;20022;-71
2022/04/30 06:26:53;;;;;;;9.83;6.23;;;;;;;;;;5109275;28;20034;-71
2022/04/30 06:29:22;;;;;;;12.17;5.40;;;;;;;;;;5109523;28;20107;-71
2022/04/30 06:31:51;;;;;;;11.63;6.33;;;;;;;;;;5109653;28;20028;-71
2022/04/30 06:34:18;;;;;;;10.53;6.67;;;;;;;;;;5114347;28;20028;-71
2022/04/30 06:36:45;;;;;;;11.93;6.70;;;;;;;;;;5114255;28;20104;-71
2022/04/30 06:39:12;;;;;;;13.00;7.83;;;;;;;;;;5114424;28;20105;-71
2022/04/30 06:41:39;;;;;;;9.37;5.97;;;;;;;;;;5113226;28;20471;-72
2022/04/30 06:44:05;;;;;;;10.63;6.20;;;;;;;;;;5113535;28;20026;-72
2022/04/30 06:46:32;;;;;;;8.80;6.43;;;;;;;;;;5108829;28;20031;-71
2022/04/30 06:48:59;;;;;;;11.63;5.97;;;;;;;;;;5108756;28;20169;-72
2022/04/30 06:51:26;;;;;;;11.73;7.17;;;;;;;;;;5107983;28;20028;-72
2022/04/30 06:59:22;;;;;;;11.65;7.40;;;;;;;;;;5111501;28;20043;-71
2022/04/30 07:02:03;;;;;;;12.63;6.83;;;;;;;;;;5114002;28;20031;-71
2022/04/30 07:04:30;;;;;;;11.97;7.50;;;;;;;;;;5113242;28;20027;-71
2022/04/30 07:06:57;;;;;;;10.63;7.53;;;;;;;;;;5111781;28;20449;-71
2022/04/30 07:09:24;;;;;;;13.23;7.83;;;;;;;;;;5108323;28;20600;-71
2022/04/30 07:11:51;;;;;;;11.67;7.87;;;;;;;;;;5107375;28;20027;-72
2022/04/30 07:14:17;;;;;;;13.23;6.87;;;;;;;;;;5108245;28;20375;-71
2022/04/30 07:16:44;;;;;;;11.90;7.50;;;;;;;;;;5109334;28;20020;-71
2022/04/30 07:19:11;;;;;;;10.60;6.17;;;;;;;;;;5113121;28;20033;-71
2022/04/30 07:21:37;;;;;;;10.53;6.67;;;;;;;;;;5113038;28;20027;-72
2022/04/30 07:24:04;;;;;;;10.00;6.97;;;;;;;;;;5113483;28;20033;-71
2022/04/30 07:26:31;;;;;;;11.20;7.43;;;;;;;;;;5113748;28;20038;-71
2022/04/30 07:28:58;;;;;;;13.63;6.80;;;;;;;;;;5111814;28;20470;-71
2022/04/30 07:31:25;;;;;;;10.60;7.00;;;;;;;;;;5108152;28;20074;-71
2022/04/30 07:33:51;;;;;;;8.63;6.00;;;;;;;;;;5107532;28;20031;-71
2022/04/30 07:36:18;;;;;;;9.33;6.80;;;;;;;;;;5107667;28;20370;-72
2022/04/30 07:38:45;;;;;;;10.23;7.00;;;;;;;;;;5096873;28;20039;-72
2022/04/30 07:41:12;;;;;;;11.53;6.70;;;;;;;;;;5113155;28;20027;-71
2022/04/30 07:43:39;;;;;;;10.13;6.03;;;;;;;;;;5093191;28;20507;-71
2022/04/30 07:46:06;;;;;;;10.00;6.50;;;;;;;;;;5095717;28;20404;-71
2022/04/30 07:48:32;;;;;;;9.70;6.70;;;;;;;;;;5112908;28;20072;-71
2022/04/30 07:51:00;;;;;;;15.23;7.60;;;;;;;;;;5112887;28;20020;-71
2022/04/30 07:53:26;;;;;;;10.00;6.97;;;;;;;;;;5107311;28;20027;-71
2022/04/30 07:55:54;;;;;;;13.37;8.20;;;;;;;;;;5107525;28;20038;-71
2022/04/30 07:58:21;;;;;;;12.63;7.27;;;;;;;;;;5107357;28;20455;-71
2022/04/30 08:00:48;;;;;;;13.77;7.77;;;;;;;;;;5107561;28;20027;-71
2022/04/30 08:03:14;;;;;;;12.57;7.10;;;;;;;;;;5112345;28;20360;-71
2022/04/30 08:05:41;;;;;;;10.90;6.37;;;;;;;;;;5112770;28;20024;-71
2022/04/30 08:08:08;;;;;;;12.23;6.47;;;;;;;;;;5113236;28;20508;-71
2022/04/30 08:10:34;;;;;;;7.10;5.30;;;;;;;;;;5112932;28;20039;-71
2022/04/30 08:13:01;;;;;;;10.60;6.70;;;;;;;;;;5112951;28;20026;-70
2022/04/30 08:15:28;;;;;;;11.47;8.07;;;;;;;;;;5107039;28;20024;-71
2022/04/30 08:17:54;;;;;;;11.97;7.97;;;;;;;;;;5107064;28;20038;-71
2022/04/30 08:20:21;;;;;;;11.07;7.30;;;;;;;;;;5107356;28;20032;-71
2022/04/30 08:22:48;;;;;;;10.80;7.57;;;;;;;;;;5107178;28;20020;-71
2022/04/30 08:25:15;;;;;;;10.13;7.00;;;;;;;;;;5111366;28;20513;-71
2022/04/30 08:27:42;;;;;;;9.87;6.67;;;;;;;;;;5112456;28;20027;-71
2022/04/30 08:30:10;;;;;;;12.17;6.60;;;;;;;;;;5111459;28;20035;-70
2022/04/30 08:32:37;;;;;;;9.93;6.60;;;;;;;;;;5112109;28;20059;-71
2022/04/30 08:35:04;;;;;;;10.33;6.53;;;;;;;;;;5094481;28;20378;-71
2022/04/30 08:37:30;;;;;;;13.10;6.97;;;;;;;;;;5107558;28;20466;-71
2022/04/30 08:39:57;;;;;;;14.70;7.13;;;;;;;;;;5107965;28;20023;-71
2022/04/30 08:42:24;;;;;;;13.20;7.70;;;;;;;;;;5106910;28;20038;-71
2022/04/30 08:44:51;;;;;;;14.43;8.33;;;;;;;;;;5106235;28;20031;-71
2022/04/30 08:47:18;;;;;;;10.90;7.33;;;;;;;;;;5110401;28;20030;-71
2022/04/30 08:49:44;;;;;;;14.17;8.60;;;;;;;;;;5111504;28;20438;-71
2022/04/30 08:52:15;;;;;;;14.40;8.47;;;;;;;;;;5112208;28;20815;-71
2022/04/30 08:54:42;;;;;;;14.87;8.90;;;;;;;;;;5112020;28;20092;-71
2022/04/30 08:57:08;;;;;;;14.70;8.73;;;;;;;;;;5111477;28;20019;-71
2022/04/30 08:59:35;;;;;;;11.80;7.83;;;;;;;;;;5107958;28;20036;-71
2022/04/30 09:02:02;;;;;;;10.90;7.47;;;;;;;;;;5106547;28;20043;-71
2022/04/30 09:04:42;;;;;;;10.33;7.20;;;;;;;;;;5106150;28;20066;-71
2022/04/30 09:07:12;;;;;;;10.07;6.53;;;;;;;;;;5106730;28;20142;-71
2022/04/30 09:09:39;;;;;;;9.97;6.53;;;;;;;;;;5109351;28;20055;-71
2022/04/30 09:12:15;;;;;;;10.50;6.50;;;;;;;;;;5111830;28;20071;-71
2022/04/30 09:14:42;;;;;;;8.63;6.37;;;;;;;;;;5111623;28;20032;-71
2022/04/30 09:17:13;;;;;;;10.00;6.40;;;;;;;;;;5111758;28;20035;-71
2022/04/30 09:19:53;;;;;;;15.30;7.83;;;;;;;;;;5111727;28;20430;-71
2022/04/30 09:22:40;;;;;;;14.67;7.83;;;;;;;;;;5106628;28;20024;-71
2022/04/30 09:25:07;;;;;;;9.97;7.57;;;;;;;;;;5106405;28;20436;-71
2022/04/30 09:27:34;;;;;;;11.87;8.10;;;;;;;;;;5106241;28;20747;-71
2022/04/30 09:30:02;;;;;;;13.90;8.27;;;;;;;;;;5106004;28;20043;-72
2022/04/30 09:32:28;;;;;;;12.53;8.00;;;;;;;;;;5111460;28;20080;-71
2022/04/30 09:37:42;;;;;;;9.85;7.07;;;;;;;;;;5111362;28;20489;-71
2022/04/30 09:40:14;;;;;;;10.77;6.73;;;;;;;;;;5111915;28;20023;-71
2022/04/30 09:42:41;;;;;;;12.60;7.83;;;;;;;;;;5114419;28;20420;-71
2022/04/30 09:45:08;;;;;;;10.93;7.30;;;;;;;;;;5109668;28;20096;-71
2022/04/30 09:47:36;;;;;;;10.33;7.67;;;;;;;;;;5110110;28;20027;-71
2022/04/30 09:55:34;;;;;;;11.13;8.20;;;;;;;;;;5115683;28;20042;-71
2022/04/30 09:58:04;;;;;;;10.00;6.80;;;;;;;;;;5115176;28;20370;-71
2022/04/30 10:00:35;;;;;;;12.40;8.37;;;;;;;;;;5114905;28;20092;-71
2022/04/30 10:03:02;;;;;;;8.43;6.70;;;;;;;;;;5114727;28;20023;-71
2022/04/30 10:05:32;;;;;;;12.27;6.93;;;;;;;;;;5113217;28;20035;-71
2022/04/30 10:08:00;;;;;;;11.23;7.40;;;;;;;;;;5109612;28;20101;-71
2022/04/30 10:10:36;;;;;;;13.23;8.37;;;;;;;;;;5109721;28;20486;-71
2022/04/30 10:13:16;;;;;;;13.47;8.63;;;;;;;;;;5109243;28;20480;-71
2022/04/30 10:15:47;;;;;;;11.97;7.47;;;;;;;;;;5110797;28;20024;-71
2022/04/30 10:18:14;;;;;;;14.33;7.80;;;;;;;;;;5114810;28;20092;-71
2022/04/30 10:20:50;;;;;;;11.47;7.70;;;;;;;;;;5114684;28;20027;-71
2022/04/30 10:23:17;;;;;;;11.70;8.37;;;;;;;;;;5114799;28;20028;-71
2022/04/30 10:25:48;;;;;;;9.93;6.90;;;;;;;;;;5114629;28;20023;-71
2022/04/30 10:28:17;;;;;;;11.57;8.00;;;;;;;;;;5111911;28;20024;-71
2022/04/30 10:30:45;;;;;;;12.40;7.03;;;;;;;;;;5109368;28;20195;-71
2022/04/30 10:33:12;;;;;;;11.27;7.43;;;;;;;;;;5109216;28;20034;-71
2022/04/30 10:35:45;;;;;;;10.27;7.53;;;;;;;;;;5109142;28;20032;-71
2022/04/30 10:38:12;;;;;;;11.07;7.17;;;;;;;;;;5110891;28;20024;-71
2022/04/30 10:40:40;;;;;;;10.00;6.67;;;;;;;;;;5113908;28;20049;-71
2022/04/30 10:43:16;;;;;;;10.57;7.47;;;;;;;;;;5114221;28;20046;-71
2022/04/30 10:45:43;;;;;;;10.43;6.77;;;;;;;;;;5113891;28;20019;-71
2022/04/30 10:48:10;;;;;;;9.20;6.30;;;;;;;;;;5096101;28;20359;-71
2022/04/30 10:50:37;;;;;;;12.37;7.87;;;;;;;;;;5110763;28;20478;-71
2022/04/30 10:53:03;;;;;;;10.63;7.30;;;;;;;;;;5106494;28;20031;-71
2022/04/30 10:55:31;;;;;;;12.00;7.37;;;;;;;;;;5108503;28;20016;-71
2022/04/30 10:57:57;;;;;;;9.90;7.57;;;;;;;;;;5108532;28;20059;-71
2022/04/30 11:00:26;;;;;;;9.53;7.10;;;;;;;;;;5110750;28;20024;-71
2022/04/30 11:02:53;;;;;;;9.27;7.33;;;;;;;;;;5113677;28;20027;-71
2022/04/30 11:05:24;;;;;;;10.37;7.57;;;;;;;;;;5113830;28;20482;-71
2022/04/30 11:07:51;;;;;;;9.67;7.43;;;;;;;;;;5113697;28;20030;-71
2022/04/30 11:10:18;;;;;;;16.97;8.00;;;;;;;;;;5113519;28;20039;-71
2022/04/30 11:12:45;;;;;;;12.27;7.53;;;;;;;;;;5111337;28;20062;-71
2022/04/30 11:15:14;;;;;;;12.37;8.23;;;;;;;;;;5108197;28;20027;-71
2022/04/30 11:17:45;;;;;;;8.97;7.30;;;;;;;;;;5108051;28;20024;-71
2022/04/30 11:20:12;;;;;;;11.73;7.30;;;;;;;;;;5108194;28;20031;-71
2022/04/30 11:22:38;;;;;;;10.43;7.30;;;;;;;;;;5109394;28;20099;-71
2022/04/30 11:25:05;;;;;;;12.50;7.97;;;;;;;;;;5113360;28;20031;-71
2022/04/30 11:27:32;;;;;;;11.43;7.97;;;;;;;;;;5113319;28;20020;-71
2022/04/30 11:29:59;;;;;;;10.73;7.73;;;;;;;;;;5113626;28;20460;-71
2022/04/30 11:32:27;;;;;;;8.93;6.83;;;;;;;;;;5113324;28;20031;-71
2022/04/30 11:34:54;;;;;;;10.77;7.73;;;;;;;;;;5094800;28;20023;-71
2022/04/30 11:37:21;;;;;;;12.80;8.60;;;;;;;;;;5107869;28;20095;-71
2022/04/30 11:39:47;;;;;;;12.07;8.40;;;;;;;;;;5107581;28;20402;-71
2022/04/30 11:42:14;;;;;;;11.80;7.80;;;;;;;;;;5107529;28;20470;-71
2022/04/30 11:44:41;;;;;;;10.53;7.27;;;;;;;;;;5108347;28;20035;-71
2022/04/30 11:47:11;;;;;;;9.23;6.60;;;;;;;;;;5113207;28;20047;-71
2022/04/30 11:49:38;;;;;;;8.37;6.07;;;;;;;;;;5112926;28;20479;-71
2022/04/30 11:52:05;;;;;;;9.03;6.53;;;;;;;;;;5112608;28;20051;-71
2022/04/30 11:54:32;;;;;;;12.07;6.73;;;;;;;;;;5112998;28;20085;-71
2022/04/30 11:56:59;;;;;;;9.23;6.93;;;;;;;;;;5110927;28;20063;-72
2022/04/30 11:59:35;;;;;;;11.00;8.13;;;;;;;;;;5107222;28;20104;-71
2022/04/30 12:02:02;;;;;;;10.00;7.23;;;;;;;;;;5106782;28;20023;-71
2022/04/30 12:04:32;;;;;;;10.70;7.43;;;;;;;;;;5095234;28;20023;-70
2022/04/30 12:07:00;;;;;;;9.37;7.27;;;;;;;;;;5108696;28;20424;-70
2022/04/30 12:09:31;;;;;;;21.63;8.03;;;;;;;;;;5112525;28;20169;-70
2022/04/30 12:11:58;;;;;;;9.77;6.93;;;;;;;;;;5112890;28;20111;-70
2022/04/30 12:14:25;;;;;;;10.37;8.40;;;;;;;;;;5112567;28;20579;-70
2022/04/30 12:16:53;;;;;;;11.97;8.37;;;;;;;;;;5112691;28;20112;-70
2022/04/30 12:25:12;;;;;;;12.33;8.40;;;;;;;;;;5107041;28;20070;-70
2022/04/30 12:27:40;;;;;;;12.33;8.53;;;;;;;;;;5106565;28;20462;-71
2022/04/30 12:30:16;;;;;;;14.73;9.77;;;;;;;;;;5109410;28;20036;-71
2022/04/30 12:32:47;;;;;;;14.80;10.70;;;;;;;;;;5098403;28;20043;-71
2022/04/30 12:35:24;;;;;;;17.07;11.40;;;;;;;;;;5112346;28;20351;-70
2022/04/30 12:38:02;;;;;;;15.57;10.43;;;;;;;;;;5112374;28;20049;-71
2022/04/30 12:40:29;;;;;;;15.40;9.70;;;;;;;;;;5112615;28;20050;-70
2022/04/30 12:42:55;;;;;;;14.07;9.53;;;;;;;;;;5107365;28;20027;-71
2022/04/30 12:45:22;;;;;;;15.97;9.77;;;;;;;;;;5107114;28;20478;-70
2022/04/30 12:47:53;;;;;;;16.03;9.83;;;;;;;;;;5106897;28;20490;-70
2022/04/30 12:50:21;;;;;;;10.90;8.20;;;;;;;;;;5107114;28;20081;-70
2022/04/30 12:52:48;;;;;;;14.70;10.03;;;;;;;;;;5110393;28;20024;-71
2022/04/30 12:55:18;;;;;;;14.73;9.93;;;;;;;;;;5111768;28;20028;-70
2022/04/30 12:57:45;;;;;;;16.23;10.60;;;;;;;;;;5112096;28;20028;-70
2022/04/30 13:00:12;;;;;;;12.23;9.20;;;;;;;;;;5112694;28;20023;-71
2022/04/30 13:02:40;;;;;;;15.53;10.57;;;;;;;;;;5111973;28;20099;-70
2022/04/30 13:05:10;;;;;;;16.00;10.50;;;;;;;;;;5108450;28;20035;-70
2022/04/30 13:07:41;;;;;;;16.30;10.30;;;;;;;;;;5106100;28;20486;-71
2022/04/30 13:15:38;;;;;;;16.83;11.38;;;;;;;;;;5111403;28;20039;-71
2022/04/30 13:18:06;;;;;;;16.67;10.90;;;;;;;;;;5115981;28;20507;-71
2022/04/30 13:20:33;;;;;;;14.03;11.40;;;;;;;;;;5116267;28;20375;-71
2022/04/30 13:22:59;;;;;;;20.70;11.03;;;;;;;;;;5115920;28;20051;-71
2022/04/30 13:25:28;;;;;;;18.17;11.40;;;;;;;;;;5115455;28;20501;-71
2022/04/30 13:27:55;;;;;;;15.17;11.30;;;;;;;;;;5110235;28;20019;-71
2022/04/30 13:30:26;;;;;;;21.03;10.43;;;;;;;;;;5110132;28;20028;-71
2022/04/30 13:32:53;;;;;;;20.40;10.77;;;;;;;;;;5110336;28;20035;-71
2022/04/30 13:35:20;;;;;;;21.00;10.47;;;;;;;;;;5110305;28;20507;-71
2022/04/30 13:37:47;;;;;;;16.70;10.47;;;;;;;;;;5114704;28;20045;-71
2022/04/30 13:40:14;;;;;;;13.57;10.00;;;;;;;;;;5115603;28;20106;-72
2022/04/30 13:42:41;;;;;;;13.90;9.77;;;;;;;;;;5115217;28;20039;-71
2022/04/30 13:45:08;;;;;;;17.47;10.40;;;;;;;;;;5115405;28;20083;-71
2022/04/30 13:47:36;;;;;;;16.87;10.00;;;;;;;;;;5114776;28;20031;-72
2022/04/30 13:50:07;;;;;;;17.57;11.60;;;;;;;;;;5090040;28;20036;-72
2022/04/30 13:52:37;;;;;;;17.27;11.40;;;;;;;;;;5107882;28;21327;-71
2022/04/30 13:55:07;;;;;;;18.27;13.90;;;;;;;;;;5094088;28;20486;-71
2022/04/30 13:57:34;;;;;;;21.57;13.63;;;;;;;;;;5109315;28;20031;-70
2022/04/30 14:00:00;;;;;;;19.37;13.20;;;;;;;;;;5094316;28;20020;-70
2022/04/30 14:02:27;;;;;;;20.13;13.50;;;;;;;;;;5113046;28;20026;-70
2022/04/30 14:04:54;;;;;;;21.80;15.47;;;;;;;;;;5114339;28;20035;-69
2022/04/30 14:07:20;;;;;;;21.10;14.97;;;;;;;;;;5115366;28;20032;-70
2022/04/30 14:09:47;;;;;;;26.10;15.43;;;;;;;;;;5114404;28;20038;-70
2022/04/30 14:12:14;;;;;;;22.33;15.77;;;;;;;;;;5110425;28;20077;-70
2022/04/30 14:14:56;;;;;;;25.63;15.33;;;;;;;;;;5109314;28;20032;-70
2022/04/30 14:20:11;;;;;;;22.03;14.17;;;;;;;;;;5094597;28;20084;-70
2022/04/30 14:22:38;;;;;;;28.60;17.97;;;;;;;;;;5114945;28;20490;-70
2022/04/30 14:25:09;;;;;;;23.53;14.53;;;;;;;;;;5114556;28;20367;-70
2022/04/30 14:27:38;;;;;;;26.60;16.70;;;;;;;;;;5112949;28;20019;-70
2022/04/30 14:30:06;;;;;;;22.50;14.50;;;;;;;;;;5114036;28;20062;-70
2022/04/30 14:32:34;;;;;;;22.70;14.50;;;;;;;;;;5114832;28;20020;-70
2022/04/30 14:35:01;;;;;;;26.50;15.50;;;;;;;;;;5108546;28;20482;-70
2022/04/30 14:37:30;;;;;;;25.40;15.50;;;;;;;;;;5109010;28;20023;-70
2022/04/30 14:39:57;;;;;;;24.83;16.40;;;;;;;;;;5108791;28;20374;-70
2022/04/30 14:42:27;;;;;;;23.20;16.93;;;;;;;;;;5108241;28;20019;-70
2022/04/30 14:44:54;;;;;;;27.33;17.60;;;;;;;;;;5114268;28;20019;-70
2022/04/30 14:47:22;;;;;;;25.83;16.83;;;;;;;;;;5114437;28;20099;-70
2022/04/30 14:49:49;;;;;;;23.30;15.70;;;;;;;;;;5114162;28;20036;-70
2022/04/30 14:52:16;;;;;;;25.37;17.47;;;;;;;;;;5113761;28;20036;-70
2022/04/30 14:54:43;;;;;;;27.63;17.37;;;;;;;;;;5113831;28;20030;-70
2022/04/30 14:57:09;;;;;;;21.30;15.73;;;;;;;;;;5108408;28;20019;-71
2022/04/30 14:59:36;;;;;;;25.83;18.87;;;;;;;;;;5107934;28;20420;-71
2022/04/30 15:02:03;;;;;;;25.00;17.17;;;;;;;;;;5108168;28;20150;-70
2022/04/30 15:04:31;;;;;;;26.60;18.03;;;;;;;;;;5108369;28;20028;-70
2022/04/30 15:06:59;;;;;;;24.47;18.33;;;;;;;;;;5113107;28;20019;-71
2022/04/30 15:09:26;;;;;;;21.07;16.40;;;;;;;;;;5113922;28;20371;-70
2022/04/30 15:11:53;;;;;;;25.13;17.33;;;;;;;;;;5113955;28;20051;-71
2022/04/30 15:14:20;;;;;;;21.67;15.10;;;;;;;;;;5112983;28;20031;-71
2022/04/30 15:16:47;;;;;;;21.30;17.27;;;;;;;;;;5113843;28;20114;-70
2022/04/30 15:19:14;;;;;;;19.17;15.07;;;;;;;;;;5108723;28;20023;-71
2022/04/30 15:21:41;;;;;;;20.07;16.07;;;;;;;;;;5108453;28;20019;-71
2022/04/30 15:24:08;;;;;;;20.90;16.50;;;;;;;;;;5107709;28;20019;-71
2022/04/30 15:26:35;;;;;;;19.93;16.70;;;;;;;;;;5108271;28;20525;-71